AirNav   Everest Fuels
 
 1334 users online  

T91 The Carter Memorial Airport
Luling, Texas, USA

GOING TO LULING?


FAA INFORMATION EFFECTIVE 20 MAY 2021

Location

FAA Identifier: T91
Lat/Long: 29-43-41.8170N 097-39-33.9940W
29-43.696950N 097-39.566567W
29.7282825,-97.6594428
(estimated)
Elevation: 475 ft. / 145 m (estimated)
Variation: 07E (1985)
From city: 3 miles N of LULING, TX
Time zone: UTC -5 (UTC -6 during Standard Time)
Zip code: 78648

Airport Operations

Airport use: Open to the public
Activation date: 03/1949
Control tower: no
ARTCC: HOUSTON CENTER
FSS: SAN ANGELO FLIGHT SERVICE STATION
NOTAMs facility: SJT (NOTAM-D service available)
Attendance: UNATNDD
Wind indicator: yes
Segmented circle: no

Airport Communications

CTAF: 122.9
WX AWOS-3PT at HYI (14 nm NW): PHONE 512-353-8005
WX AWOS-3 at T20 (16 nm SE): 125.875 (830-519-4254)

Nearby radio navigation aids

VOR radial/distance  VOR name  Freq  Var
RNDr064/35.0RANDOLPH VORTAC112.3005E
CWKr184/39.6CENTEX VORTAC112.8006E

Airport Services

Parking: tiedowns
Powerplant service: NONE
Bottled oxygen: NONE
Bulk oxygen: NONE

Runway Information

Runway 17/35

Dimensions: 2790 x 45 ft. / 850 x 14 m
Surface: asphalt/L
RWY 17/35 EXTENSIVE PAVEMENT CRACKING, LARGE POT HOLES, LARGE PIECES OF AGGREGATE, LOOSE STONES THROUGHOUT.
Weight bearing capacity: 
Single wheel: 11.0
RUNWAY 17  RUNWAY 35
Traffic pattern: leftleft
Markings: nonenone
Obstructions: 25 ft. pline, 200 ft. from runway, 90 ft. right of centerline
DIRT ROAD ACROSS APCH AT THLD; +13 FT TREE 195 FT FM THLD 93 FT LEFT.
38 ft. trees, 660 ft. from runway, 12:1 slope to clear

Airport Ownership and Management from official FAA records

Ownership: Publicly-owned
Owner: CITY OF LULING
509 E. CROCKETT STREET
LULING, TX 78648
Phone 830-875-2481
Manager: MARK MAYO
509 E.CROCKETT STREET
LULING, TX 78648
Phone 830-875-2481
CITY MANAGER.

Airport Operational Statistics

Aircraft based on the field: 5
Single engine airplanes: 3
Multi engine airplanes: 1
Ultralights: 1
    
Aircraft operations: avg 23/week *
83% local general aviation
17% transient general aviation
* for 12-month period ending 09 May 2020

Additional Remarks

FOR CD CTC AUSTIN APCH AT 512-369-7865.
SKYDIVING ON & INVOF ARPT DLY AND OCNL NIGHTS SFC TO 10,000 FT MSL.

Instrument Procedures

There are no published instrument procedures at T91.

Some nearby airports with instrument procedures:

50R - Lockhart Municipal Airport (7 nm N)
KHYI - San Marcos Regional Airport (14 nm NW)
KBAZ - New Braunfels Regional Airport (20 nm W)
KAUS - Austin-Bergstrom International Airport (28 nm N)
KRND - Randolph Air Force Base (34 nm W)
 
Loc | Ops | Rwys | IFR | FBO | Links
Com | Nav | Svcs | Stats | Notes
Area around T91 (The Carter Memorial Airport)
 
Road maps at: MapQuest Bing Google
 
Aerial photo
WARNING: Photo may not be current or correct
Aerial photo of T91 (The Carter Memorial Airport)
Photo by Karl Schneider

Do you have a better or more recent aerial photo of The Carter Memorial Airport that you would like to share? If so, please send us your photo.

 
Sectional chart

 
Airport distance calculator
Flying to The Carter Memorial Airport? Find the distance to fly.

From to T91

Sunrise and sunset
Times for 14-Jun-2021
 Local
(UTC-5)
 Zulu
(UTC)
Morning civil twilight06:0311:03
Sunrise06:3111:31
Sunset20:3101:31
Evening civil twilight20:5801:58

Current date and time
Zulu (UTC)  14-Jun-2021 21:36:34
Local (UTC-5)  14-Jun-2021 16:36:34
 
METAR
KHYI 
14nm NW 
142056Z VRB04KT 10SM CLR 36/22 A2994 RMK AO2 SLP127 T03560217 58021
KT20 
16nm SE 
142115Z AUTO 00000KT 10SM CLR 36/22 A2990 RMK AO2 T03600216
KSEQ 
16nm SW 
142058Z AUTO 10004KT 10SM CLR 35/22 A2996 RMK AO2 SLP140 T03450215 57021
KBAZ 
20nm W 
142051Z AUTO 09007KT 10SM CLR 37/22 A2992 RMK AO2 SLP121 T03670217 58021
TAF
NOTAMs
Click for the latest NOTAMs
NOTAMs are issued by the DoD/FAA and will open in a separate window not controlled by AirNav.

 

 
 

Would you like to see your business listed on this page?

 If your business provides an interesting product or service to pilots, flight crews, aircraft, or users of the The Carter Memorial Airport, you should consider listing it here.  To start the listing process, click on the button below
 
Add a business
 

Other Pages about The Carter Memorial Airport

Update a link
 
Copyright © AirNav, LLC. All rights reserved. Privacy Policy  Contact